Aviation Digital Data Service (ADDS)

Output produced by METARs form (0420 UTC 21 January 2018)
found at http://aviationweather.gov/adds/metars/
 
KAEX 210353Z 14010KT 10SM FEW015 SCT022 OVC055 16/14 A3011 RMK AO2 SLP200 T01560144